createdAt,value
2023-02-17T00:09:44.476Z,-0.27
2023-02-17T00:19:50.182Z,-0.28
2023-02-17T00:29:55.794Z,-0.38
2023-02-17T00:40:01.576Z,-0.47
2023-02-17T00:50:09.285Z,-0.62
2023-02-17T01:00:17.642Z,-0.74
2023-02-17T01:10:23.503Z,-0.77
2023-02-17T01:20:29.219Z,-0.79
2023-02-17T01:30:35.718Z,-0.68
2023-02-17T01:40:49.450Z,-0.62
2023-02-17T01:51:00.471Z,-0.57
2023-02-17T02:01:08.252Z,-0.38
2023-02-17T02:11:13.911Z,-0.15
2023-02-17T02:21:49.994Z,0.05
2023-02-17T02:32:02.518Z,0.17
2023-02-17T02:42:12.169Z,0.31
2023-02-17T02:52:26.959Z,0.51
2023-02-17T03:02:39.521Z,0.66
2023-02-17T03:12:45.434Z,0.80
2023-02-17T03:22:51.866Z,0.91
2023-02-17T03:32:57.962Z,1.01
2023-02-17T03:43:03.716Z,1.03
2023-02-17T03:53:09.571Z,1.07
2023-02-17T04:03:15.354Z,1.16
2023-02-17T04:13:21.053Z,1.23
2023-02-17T04:23:26.820Z,1.32
2023-02-17T04:33:32.973Z,1.40
2023-02-17T04:43:39.009Z,1.45
2023-02-17T04:53:44.766Z,1.52
2023-02-17T05:03:50.529Z,1.57
2023-02-17T05:13:56.104Z,1.63
2023-02-17T05:24:02.006Z,1.70
2023-02-17T05:34:07.774Z,1.73
2023-02-17T05:44:13.822Z,1.73
2023-02-17T05:54:19.573Z,1.72
2023-02-17T06:04:25.637Z,1.74
2023-02-17T06:14:31.836Z,1.89
2023-02-17T06:24:37.518Z,2.00
2023-02-17T06:34:43.276Z,2.19
2023-02-17T06:44:49.401Z,2.42
2023-02-17T06:54:55.263Z,2.63
2023-02-17T07:05:00.912Z,2.80
2023-02-17T07:15:09.443Z,2.89
2023-02-17T07:25:17.692Z,3.05
2023-02-17T07:35:23.416Z,3.18
2023-02-17T07:45:29.196Z,3.25
2023-02-17T07:55:34.831Z,3.39
2023-02-17T08:05:42.663Z,3.64
2023-02-17T08:15:48.372Z,3.75
2023-02-17T08:25:54.161Z,3.90
2023-02-17T08:36:00.171Z,4.14
2023-02-17T08:46:10.278Z,4.40
2023-02-17T08:56:15.982Z,4.54
2023-02-17T09:06:22.397Z,4.56
2023-02-17T09:16:28.242Z,4.60
2023-02-17T09:26:35.109Z,4.56
2023-02-17T09:36:43.382Z,4.56
2023-02-17T09:47:02.206Z,4.58
2023-02-17T09:57:13.963Z,4.62
2023-02-17T10:07:24.105Z,4.58
2023-02-17T10:17:37.777Z,4.71
2023-02-17T10:27:47.271Z,4.92
2023-02-17T10:37:59.446Z,4.99
2023-02-17T10:48:09.218Z,4.98
2023-02-17T10:58:21.195Z,5.00
2023-02-17T11:08:38.402Z,5.04
2023-02-17T11:18:50.896Z,5.03
2023-02-17T11:28:56.620Z,5.02
2023-02-17T11:39:14.639Z,5.04
2023-02-17T11:49:43.971Z,5.07
2023-02-17T12:00:05.756Z,5.12
2023-02-17T12:10:21.897Z,5.13
2023-02-17T12:20:45.655Z,5.22
2023-02-17T12:31:02.564Z,5.36
2023-02-17T12:41:11.553Z,5.39
2023-02-17T12:51:23.373Z,5.38
2023-02-17T13:01:33.787Z,5.45
2023-02-17T13:11:39.871Z,5.44
2023-02-17T13:21:55.979Z,5.43
2023-02-17T13:32:04.689Z,5.45
2023-02-17T13:42:39.132Z,5.43
2023-02-17T13:52:46.245Z,5.40
2023-02-17T14:02:55.360Z,5.39
2023-02-17T14:13:01.685Z,5.41
2023-02-17T14:23:11.709Z,5.44
2023-02-17T14:33:24.786Z,5.45
2023-02-17T14:43:31.091Z,5.45
2023-02-17T14:53:38.975Z,5.45
2023-02-17T15:03:45.539Z,5.46
2023-02-17T15:13:51.952Z,5.44
2023-02-17T15:23:59.742Z,5.43
2023-02-17T15:34:07.863Z,5.42
2023-02-17T15:44:17.928Z,5.41
2023-02-17T15:54:23.569Z,5.44
2023-02-17T16:04:32.234Z,5.47
2023-02-17T16:14:40.649Z,5.53
2023-02-17T16:24:46.373Z,5.55
2023-02-17T16:34:52.761Z,5.55
2023-02-17T16:44:58.409Z,5.55
2023-02-17T16:55:04.133Z,5.58
2023-02-17T17:05:11.412Z,5.65
2023-02-17T17:15:18.386Z,5.73
2023-02-17T17:25:24.274Z,5.77
2023-02-17T17:35:30.690Z,5.87
2023-02-17T17:45:36.700Z,5.99
2023-02-17T17:55:42.442Z,6.00
2023-02-17T18:05:48.692Z,6.01
2023-02-17T18:15:54.789Z,6.17
2023-02-17T18:26:00.493Z,6.38
2023-02-17T18:36:11.834Z,6.49
2023-02-17T18:46:17.610Z,6.60
2023-02-17T18:56:25.604Z,6.78
2023-02-17T19:06:34.755Z,7.10
2023-02-17T19:16:41.046Z,7.34
2023-02-17T19:26:46.973Z,7.45
2023-02-17T19:36:52.808Z,7.60
2023-02-17T19:46:58.880Z,7.71
2023-02-17T19:57:08.819Z,7.81
2023-02-17T20:07:14.713Z,7.87
2023-02-17T20:17:20.855Z,7.88
2023-02-17T20:27:26.680Z,7.84
2023-02-17T20:37:32.377Z,7.82
2023-02-17T20:47:38.129Z,7.88
2023-02-17T20:57:44.227Z,8.02
2023-02-17T21:07:50.433Z,8.19
2023-02-17T21:17:56.140Z,8.37
2023-02-17T21:28:02.072Z,8.44
2023-02-17T21:38:07.957Z,8.53
2023-02-17T21:48:13.851Z,8.67
2023-02-17T21:58:19.763Z,8.71
2023-02-17T22:08:25.794Z,8.45
2023-02-17T22:18:31.538Z,8.16
2023-02-17T22:28:38.283Z,7.80
2023-02-17T22:38:44.475Z,7.42
2023-02-17T22:48:52.282Z,7.05
2023-02-17T22:59:00.959Z,6.65
2023-02-17T23:09:07.733Z,6.53
2023-02-17T23:19:17.075Z,6.34
2023-02-17T23:29:23.452Z,6.16
2023-02-17T23:39:29.278Z,6.13
2023-02-17T23:49:35.031Z,6.06
2023-02-17T23:59:40.678Z,5.96
